sensor_id;sensor_type;location;lat;lon;timestamp;P1;durP1;ratioP1;P2;durP2;ratioP2
31081;SDS011;17737;52.586;13.284;2023-05-10T00:01:31;0.40;;;0.40;;
31081;SDS011;17737;52.586;13.284;2023-05-10T00:04:00;0.30;;;0.30;;
31081;SDS011;17737;52.586;13.284;2023-05-10T00:06:28;0.43;;;0.43;;
31081;SDS011;17737;52.586;13.284;2023-05-10T00:08:57;0.40;;;0.40;;
31081;SDS011;17737;52.586;13.284;2023-05-10T00:11:25;0.40;;;0.40;;
31081;SDS011;17737;52.586;13.284;2023-05-10T00:13:53;0.20;;;0.20;;
31081;SDS011;17737;52.586;13.284;2023-05-10T00:16:21;0.28;;;0.28;;
31081;SDS011;17737;52.586;13.284;2023-05-10T00:18:49;0.30;;;0.30;;
31081;SDS011;17737;52.586;13.284;2023-05-10T00:21:18;0.30;;;0.30;;
31081;SDS011;17737;52.586;13.284;2023-05-10T00:26:15;0.20;;;0.20;;
31081;SDS011;17737;52.586;13.284;2023-05-10T00:28:43;0.30;;;0.30;;
31081;SDS011;17737;52.586;13.284;2023-05-10T00:31:11;0.38;;;0.38;;
31081;SDS011;17737;52.586;13.284;2023-05-10T00:33:40;0.40;;;0.40;;
31081;SDS011;17737;52.586;13.284;2023-05-10T00:36:08;0.35;;;0.35;;
31081;SDS011;17737;52.586;13.284;2023-05-10T00:38:38;0.40;;;0.40;;
31081;SDS011;17737;52.586;13.284;2023-05-10T00:41:06;0.35;;;0.35;;
31081;SDS011;17737;52.586;13.284;2023-05-10T00:43:34;0.30;;;0.30;;
31081;SDS011;17737;52.586;13.284;2023-05-10T00:46:02;0.30;;;0.30;;
31081;SDS011;17737;52.586;13.284;2023-05-10T00:48:32;0.38;;;0.38;;
31081;SDS011;17737;52.586;13.284;2023-05-10T00:51:00;0.30;;;0.30;;
31081;SDS011;17737;52.586;13.284;2023-05-10T00:53:28;0.30;;;0.30;;
31081;SDS011;17737;52.586;13.284;2023-05-10T00:56:00;0.40;;;0.40;;
31081;SDS011;17737;52.586;13.284;2023-05-10T00:58:29;0.30;;;0.30;;
31081;SDS011;17737;52.586;13.284;2023-05-10T01:00:57;0.40;;;0.40;;
31081;SDS011;17737;52.586;13.284;2023-05-10T01:05:55;0.40;;;0.40;;
31081;SDS011;17737;52.586;13.284;2023-05-10T01:08:23;0.40;;;0.40;;
31081;SDS011;17737;52.586;13.284;2023-05-10T01:10:54;0.30;;;0.30;;
31081;SDS011;17737;52.586;13.284;2023-05-10T01:13:26;0.40;;;0.40;;
31081;SDS011;17737;52.586;13.284;2023-05-10T01:16:00;0.47;;;0.47;;
31081;SDS011;17737;52.586;13.284;2023-05-10T01:18:31;0.40;;;0.40;;
31081;SDS011;17737;52.586;13.284;2023-05-10T01:21:04;0.28;;;0.28;;
31081;SDS011;17737;52.586;13.284;2023-05-10T01:24:08;0.40;;;0.40;;
31081;SDS011;17737;52.586;13.284;2023-05-10T01:33:48;0.32;;;0.32;;
31081;SDS011;17737;52.586;13.284;2023-05-10T01:36:26;0.50;;;0.50;;
31081;SDS011;17737;52.586;13.284;2023-05-10T01:39:01;0.40;;;0.40;;
31081;SDS011;17737;52.586;13.284;2023-05-10T01:41:40;1.23;;;0.43;;
31081;SDS011;17737;52.586;13.284;2023-05-10T01:44:20;0.30;;;0.30;;
31081;SDS011;17737;52.586;13.284;2023-05-10T01:47:05;0.30;;;0.30;;
31081;SDS011;17737;52.586;13.284;2023-05-10T01:49:41;0.40;;;0.40;;
31081;SDS011;17737;52.586;13.284;2023-05-10T01:52:19;0.32;;;0.32;;
31081;SDS011;17737;52.586;13.284;2023-05-10T01:54:59;0.40;;;0.40;;
31081;SDS011;17737;52.586;13.284;2023-05-10T01:57:32;0.32;;;0.32;;
31081;SDS011;17737;52.586;13.284;2023-05-10T02:00:03;0.40;;;0.40;;
31081;SDS011;17737;52.586;13.284;2023-05-10T02:02:36;0.50;;;0.50;;
31081;SDS011;17737;52.586;13.284;2023-05-10T02:05:10;0.30;;;0.30;;
31081;SDS011;17737;52.586;13.284;2023-05-10T02:07:41;0.30;;;0.30;;
31081;SDS011;17737;52.586;13.284;2023-05-10T02:12:42;0.40;;;0.40;;
31081;SDS011;17737;52.586;13.284;2023-05-10T02:15:16;0.30;;;0.30;;
31081;SDS011;17737;52.586;13.284;2023-05-10T02:17:50;0.30;;;0.30;;
31081;SDS011;17737;52.586;13.284;2023-05-10T02:20:24;0.40;;;0.40;;
31081;SDS011;17737;52.586;13.284;2023-05-10T02:22:54;0.40;;;0.40;;
31081;SDS011;17737;52.586;13.284;2023-05-10T02:25:25;0.40;;;0.40;;
31081;SDS011;17737;52.586;13.284;2023-05-10T02:27:56;0.50;;;0.50;;
31081;SDS011;17737;52.586;13.284;2023-05-10T02:30:28;0.50;;;0.50;;
31081;SDS011;17737;52.586;13.284;2023-05-10T02:32:59;0.40;;;0.40;;
31081;SDS011;17737;52.586;13.284;2023-05-10T02:35:32;0.30;;;0.30;;
31081;SDS011;17737;52.586;13.284;2023-05-10T02:38:03;0.38;;;0.38;;
31081;SDS011;17737;52.586;13.284;2023-05-10T02:40:33;0.35;;;0.35;;
31081;SDS011;17737;52.586;13.284;2023-05-10T02:43:05;0.30;;;0.30;;
31081;SDS011;17737;52.586;13.284;2023-05-10T02:45:39;0.40;;;0.40;;
31081;SDS011;17737;52.586;13.284;2023-05-10T02:48:10;0.40;;;0.40;;
31081;SDS011;17737;52.586;13.284;2023-05-10T02:50:40;0.40;;;0.40;;
31081;SDS011;17737;52.586;13.284;2023-05-10T02:53:14;0.40;;;0.40;;
31081;SDS011;17737;52.586;13.284;2023-05-10T02:55:49;0.50;;;0.50;;
31081;SDS011;17737;52.586;13.284;2023-05-10T02:58:21;0.43;;;0.43;;
31081;SDS011;17737;52.586;13.284;2023-05-10T03:00:49;0.40;;;0.40;;
31081;SDS011;17737;52.586;13.284;2023-05-10T03:03:17;0.50;;;0.50;;
31081;SDS011;17737;52.586;13.284;2023-05-10T03:05:46;0.40;;;0.40;;
31081;SDS011;17737;52.586;13.284;2023-05-10T03:08:14;0.30;;;0.30;;
31081;SDS011;17737;52.586;13.284;2023-05-10T03:10:47;0.40;;;0.40;;
31081;SDS011;17737;52.586;13.284;2023-05-10T03:13:29;0.45;;;0.45;;
31081;SDS011;17737;52.586;13.284;2023-05-10T03:16:07;0.40;;;0.40;;
31081;SDS011;17737;52.586;13.284;2023-05-10T03:18:44;0.40;;;0.40;;
31081;SDS011;17737;52.586;13.284;2023-05-10T03:21:21;0.43;;;0.43;;
31081;SDS011;17737;52.586;13.284;2023-05-10T03:23:57;0.30;;;0.30;;
31081;SDS011;17737;52.586;13.284;2023-05-10T03:26:34;0.47;;;0.47;;
31081;SDS011;17737;52.586;13.284;2023-05-10T03:29:06;0.40;;;0.40;;
31081;SDS011;17737;52.586;13.284;2023-05-10T03:31:35;0.45;;;0.45;;
31081;SDS011;17737;52.586;13.284;2023-05-10T03:34:04;0.47;;;0.47;;
31081;SDS011;17737;52.586;13.284;2023-05-10T03:36:33;0.50;;;0.50;;
31081;SDS011;17737;52.586;13.284;2023-05-10T03:39:02;0.55;;;0.50;;
31081;SDS011;17737;52.586;13.284;2023-05-10T03:41:30;0.55;;;0.55;;
31081;SDS011;17737;52.586;13.284;2023-05-10T03:43:58;0.30;;;0.30;;
31081;SDS011;17737;52.586;13.284;2023-05-10T03:46:26;0.47;;;0.47;;
31081;SDS011;17737;52.586;13.284;2023-05-10T03:48:54;0.32;;;0.32;;
31081;SDS011;17737;52.586;13.284;2023-05-10T03:51:22;0.40;;;0.40;;
31081;SDS011;17737;52.586;13.284;2023-05-10T03:53:55;0.40;;;0.40;;
31081;SDS011;17737;52.586;13.284;2023-05-10T03:56:25;0.40;;;0.40;;
31081;SDS011;17737;52.586;13.284;2023-05-10T03:58:53;0.32;;;0.32;;
31081;SDS011;17737;52.586;13.284;2023-05-10T04:01:21;0.50;;;0.50;;
31081;SDS011;17737;52.586;13.284;2023-05-10T04:03:49;0.30;;;0.30;;
31081;SDS011;17737;52.586;13.284;2023-05-10T04:06:17;0.35;;;0.35;;
31081;SDS011;17737;52.586;13.284;2023-05-10T04:08:45;0.40;;;0.40;;
31081;SDS011;17737;52.586;13.284;2023-05-10T04:11:14;0.40;;;0.40;;
31081;SDS011;17737;52.586;13.284;2023-05-10T04:13:43;0.40;;;0.40;;
31081;SDS011;17737;52.586;13.284;2023-05-10T04:16:11;0.25;;;0.25;;
31081;SDS011;17737;52.586;13.284;2023-05-10T04:18:39;0.30;;;0.30;;
31081;SDS011;17737;52.586;13.284;2023-05-10T04:21:10;0.30;;;0.30;;
31081;SDS011;17737;52.586;13.284;2023-05-10T04:23:39;0.30;;;0.30;;
31081;SDS011;17737;52.586;13.284;2023-05-10T04:26:08;0.30;;;0.30;;
31081;SDS011;17737;52.586;13.284;2023-05-10T04:28:37;0.40;;;0.40;;
31081;SDS011;17737;52.586;13.284;2023-05-10T04:31:06;0.35;;;0.35;;
31081;SDS011;17737;52.586;13.284;2023-05-10T04:33:36;0.20;;;0.20;;
31081;SDS011;17737;52.586;13.284;2023-05-10T04:36:05;0.40;;;0.40;;
31081;SDS011;17737;52.586;13.284;2023-05-10T04:38:34;0.20;;;0.20;;
31081;SDS011;17737;52.586;13.284;2023-05-10T04:41:05;0.28;;;0.28;;
31081;SDS011;17737;52.586;13.284;2023-05-10T04:43:34;0.30;;;0.30;;
31081;SDS011;17737;52.586;13.284;2023-05-10T04:46:04;0.30;;;0.30;;
31081;SDS011;17737;52.586;13.284;2023-05-10T04:48:33;0.30;;;0.30;;
31081;SDS011;17737;52.586;13.284;2023-05-10T04:51:01;0.40;;;0.40;;
31081;SDS011;17737;52.586;13.284;2023-05-10T04:53:31;0.32;;;0.32;;
31081;SDS011;17737;52.586;13.284;2023-05-10T04:55:59;0.30;;;0.30;;
31081;SDS011;17737;52.586;13.284;2023-05-10T04:58:27;0.30;;;0.30;;
31081;SDS011;17737;52.586;13.284;2023-05-10T05:00:55;0.30;;;0.30;;
31081;SDS011;17737;52.586;13.284;2023-05-10T05:03:24;0.40;;;0.40;;
31081;SDS011;17737;52.586;13.284;2023-05-10T05:05:55;0.20;;;0.20;;
31081;SDS011;17737;52.586;13.284;2023-05-10T05:08:23;0.20;;;0.20;;
31081;SDS011;17737;52.586;13.284;2023-05-10T05:10:51;0.30;;;0.30;;
31081;SDS011;17737;52.586;13.284;2023-05-10T05:13:19;0.30;;;0.30;;
31081;SDS011;17737;52.586;13.284;2023-05-10T05:15:47;0.30;;;0.30;;
31081;SDS011;17737;52.586;13.284;2023-05-10T05:18:15;0.30;;;0.30;;
31081;SDS011;17737;52.586;13.284;2023-05-10T05:20:45;0.30;;;0.30;;
31081;SDS011;17737;52.586;13.284;2023-05-10T05:23:13;0.40;;;0.40;;
31081;SDS011;17737;52.586;13.284;2023-05-10T05:25:41;0.25;;;0.25;;
31081;SDS011;17737;52.586;13.284;2023-05-10T05:28:09;0.30;;;0.30;;
31081;SDS011;17737;52.586;13.284;2023-05-10T05:30:37;0.40;;;0.40;;
31081;SDS011;17737;52.586;13.284;2023-05-10T05:33:05;0.40;;;0.40;;
31081;SDS011;17737;52.586;13.284;2023-05-10T05:35:33;0.30;;;0.30;;
31081;SDS011;17737;52.586;13.284;2023-05-10T05:38:02;0.30;;;0.30;;
31081;SDS011;17737;52.586;13.284;2023-05-10T05:40:30;0.30;;;0.30;;
31081;SDS011;17737;52.586;13.284;2023-05-10T05:42:58;0.32;;;0.32;;
31081;SDS011;17737;52.586;13.284;2023-05-10T05:45:26;0.38;;;0.38;;
31081;SDS011;17737;52.586;13.284;2023-05-10T05:47:54;0.35;;;0.35;;
31081;SDS011;17737;52.586;13.284;2023-05-10T05:50:22;0.30;;;0.30;;
31081;SDS011;17737;52.586;13.284;2023-05-10T05:52:50;0.32;;;0.32;;
31081;SDS011;17737;52.586;13.284;2023-05-10T05:55:20;0.30;;;0.30;;
31081;SDS011;17737;52.586;13.284;2023-05-10T05:57:48;0.40;;;0.40;;
31081;SDS011;17737;52.586;13.284;2023-05-10T06:00:16;0.40;;;0.40;;
31081;SDS011;17737;52.586;13.284;2023-05-10T06:02:44;0.30;;;0.30;;
31081;SDS011;17737;52.586;13.284;2023-05-10T06:05:12;0.30;;;0.30;;
31081;SDS011;17737;52.586;13.284;2023-05-10T06:07:41;0.20;;;0.20;;
31081;SDS011;17737;52.586;13.284;2023-05-10T06:10:09;0.30;;;0.30;;
31081;SDS011;17737;52.586;13.284;2023-05-10T06:12:39;0.30;;;0.30;;
31081;SDS011;17737;52.586;13.284;2023-05-10T06:15:07;0.40;;;0.40;;
31081;SDS011;17737;52.586;13.284;2023-05-10T06:17:37;0.30;;;0.30;;
31081;SDS011;17737;52.586;13.284;2023-05-10T06:20:05;0.40;;;0.40;;
31081;SDS011;17737;52.586;13.284;2023-05-10T06:22:35;0.30;;;0.30;;
31081;SDS011;17737;52.586;13.284;2023-05-10T06:25:03;0.40;;;0.40;;
31081;SDS011;17737;52.586;13.284;2023-05-10T06:27:34;0.32;;;0.32;;
31081;SDS011;17737;52.586;13.284;2023-05-10T06:30:04;0.50;;;0.50;;
31081;SDS011;17737;52.586;13.284;2023-05-10T06:32:38;0.20;;;0.20;;
31081;SDS011;17737;52.586;13.284;2023-05-10T06:35:07;0.32;;;0.32;;
31081;SDS011;17737;52.586;13.284;2023-05-10T06:37:36;0.30;;;0.30;;
31081;SDS011;17737;52.586;13.284;2023-05-10T06:40:05;0.25;;;0.25;;
31081;SDS011;17737;52.586;13.284;2023-05-10T06:42:35;0.30;;;0.30;;
31081;SDS011;17737;52.586;13.284;2023-05-10T06:45:06;0.30;;;0.30;;
31081;SDS011;17737;52.586;13.284;2023-05-10T06:47:36;0.30;;;0.30;;
31081;SDS011;17737;52.586;13.284;2023-05-10T06:50:05;0.30;;;0.30;;
31081;SDS011;17737;52.586;13.284;2023-05-10T06:52:39;0.30;;;0.30;;
31081;SDS011;17737;52.586;13.284;2023-05-10T06:55:10;0.40;;;0.40;;
31081;SDS011;17737;52.586;13.284;2023-05-10T06:57:39;0.30;;;0.30;;
31081;SDS011;17737;52.586;13.284;2023-05-10T07:02:40;0.40;;;0.40;;
31081;SDS011;17737;52.586;13.284;2023-05-10T07:05:09;0.32;;;0.32;;
31081;SDS011;17737;52.586;13.284;2023-05-10T07:07:40;0.30;;;0.30;;
31081;SDS011;17737;52.586;13.284;2023-05-10T07:10:09;0.40;;;0.40;;
31081;SDS011;17737;52.586;13.284;2023-05-10T07:12:38;0.30;;;0.30;;
31081;SDS011;17737;52.586;13.284;2023-05-10T07:15:08;0.30;;;0.30;;
31081;SDS011;17737;52.586;13.284;2023-05-10T07:17:41;0.30;;;0.30;;
31081;SDS011;17737;52.586;13.284;2023-05-10T07:20:16;0.30;;;0.30;;
31081;SDS011;17737;52.586;13.284;2023-05-10T07:22:47;0.40;;;0.40;;
31081;SDS011;17737;52.586;13.284;2023-05-10T07:25:16;0.43;;;0.40;;
31081;SDS011;17737;52.586;13.284;2023-05-10T07:27:46;0.30;;;0.30;;
31081;SDS011;17737;52.586;13.284;2023-05-10T07:30:17;0.20;;;0.20;;
31081;SDS011;17737;52.586;13.284;2023-05-10T07:35:13;0.20;;;0.20;;
31081;SDS011;17737;52.586;13.284;2023-05-10T07:37:42;0.30;;;0.30;;
31081;SDS011;17737;52.586;13.284;2023-05-10T07:40:10;0.30;;;0.30;;
31081;SDS011;17737;52.586;13.284;2023-05-10T07:42:38;0.20;;;0.20;;
31081;SDS011;17737;52.586;13.284;2023-05-10T07:45:07;0.30;;;0.30;;
31081;SDS011;17737;52.586;13.284;2023-05-10T07:47:40;0.30;;;0.30;;
31081;SDS011;17737;52.586;13.284;2023-05-10T07:50:10;0.30;;;0.30;;
31081;SDS011;17737;52.586;13.284;2023-05-10T07:52:39;0.20;;;0.20;;
31081;SDS011;17737;52.586;13.284;2023-05-10T07:57:39;0.30;;;0.30;;
31081;SDS011;17737;52.586;13.284;2023-05-10T08:00:15;0.30;;;0.30;;
31081;SDS011;17737;52.586;13.284;2023-05-10T08:02:49;0.30;;;0.30;;
31081;SDS011;17737;52.586;13.284;2023-05-10T08:05:19;0.28;;;0.28;;
31081;SDS011;17737;52.586;13.284;2023-05-10T08:07:48;0.30;;;0.30;;
31081;SDS011;17737;52.586;13.284;2023-05-10T08:10:18;0.25;;;0.25;;
31081;SDS011;17737;52.586;13.284;2023-05-10T08:12:48;0.20;;;0.20;;
31081;SDS011;17737;52.586;13.284;2023-05-10T08:15:17;0.30;;;0.30;;
31081;SDS011;17737;52.586;13.284;2023-05-10T08:17:46;0.22;;;0.22;;
31081;SDS011;17737;52.586;13.284;2023-05-10T08:20:17;0.30;;;0.30;;
31081;SDS011;17737;52.586;13.284;2023-05-10T08:22:46;0.30;;;0.30;;
31081;SDS011;17737;52.586;13.284;2023-05-10T08:25:17;0.20;;;0.20;;
31081;SDS011;17737;52.586;13.284;2023-05-10T08:27:45;0.22;;;0.22;;
31081;SDS011;17737;52.586;13.284;2023-05-10T08:30:13;0.30;;;0.30;;
31081;SDS011;17737;52.586;13.284;2023-05-10T08:32:41;0.20;;;0.20;;
31081;SDS011;17737;52.586;13.284;2023-05-10T08:35:10;0.20;;;0.20;;
31081;SDS011;17737;52.586;13.284;2023-05-10T08:37:38;0.30;;;0.30;;
31081;SDS011;17737;52.586;13.284;2023-05-10T08:40:07;0.30;;;0.30;;
31081;SDS011;17737;52.586;13.284;2023-05-10T08:42:39;0.20;;;0.20;;
31081;SDS011;17737;52.586;13.284;2023-05-10T08:45:14;0.28;;;0.28;;
31081;SDS011;17737;52.586;13.284;2023-05-10T08:47:45;0.20;;;0.20;;
31081;SDS011;17737;52.586;13.284;2023-05-10T08:50:15;0.20;;;0.20;;
31081;SDS011;17737;52.586;13.284;2023-05-10T08:52:48;0.30;;;0.30;;
31081;SDS011;17737;52.586;13.284;2023-05-10T08:55:21;0.25;;;0.25;;
31081;SDS011;17737;52.586;13.284;2023-05-10T08:57:50;0.20;;;0.20;;
31081;SDS011;17737;52.586;13.284;2023-05-10T09:00:19;0.20;;;0.20;;
31081;SDS011;17737;52.586;13.284;2023-05-10T09:02:49;0.20;;;0.20;;
31081;SDS011;17737;52.586;13.284;2023-05-10T09:05:19;0.20;;;0.20;;
31081;SDS011;17737;52.586;13.284;2023-05-10T09:07:47;0.20;;;0.20;;
31081;SDS011;17737;52.586;13.284;2023-05-10T09:10:15;0.20;;;0.20;;
31081;SDS011;17737;52.586;13.284;2023-05-10T09:12:47;0.20;;;0.20;;
31081;SDS011;17737;52.586;13.284;2023-05-10T09:15:16;0.20;;;0.20;;
31081;SDS011;17737;52.586;13.284;2023-05-10T09:22:45;0.20;;;0.20;;
31081;SDS011;17737;52.586;13.284;2023-05-10T09:25:14;0.30;;;0.30;;
31081;SDS011;17737;52.586;13.284;2023-05-10T09:27:45;0.20;;;0.20;;
31081;SDS011;17737;52.586;13.284;2023-05-10T09:30:15;0.20;;;0.20;;
31081;SDS011;17737;52.586;13.284;2023-05-10T09:32:46;0.32;;;0.20;;
31081;SDS011;17737;52.586;13.284;2023-05-10T09:35:17;0.30;;;0.30;;
31081;SDS011;17737;52.586;13.284;2023-05-10T09:37:48;0.30;;;0.30;;
31081;SDS011;17737;52.586;13.284;2023-05-10T09:40:20;0.28;;;0.28;;
31081;SDS011;17737;52.586;13.284;2023-05-10T09:42:53;0.25;;;0.25;;
31081;SDS011;17737;52.586;13.284;2023-05-10T09:45:23;0.20;;;0.20;;
31081;SDS011;17737;52.586;13.284;2023-05-10T09:47:53;0.20;;;0.20;;
31081;SDS011;17737;52.586;13.284;2023-05-10T09:50:22;0.20;;;0.20;;
31081;SDS011;17737;52.586;13.284;2023-05-10T09:52:53;0.20;;;0.20;;
31081;SDS011;17737;52.586;13.284;2023-05-10T09:55:25;0.20;;;0.20;;
31081;SDS011;17737;52.586;13.284;2023-05-10T09:58:05;0.20;;;0.20;;
31081;SDS011;17737;52.586;13.284;2023-05-10T10:00:37;0.30;;;0.30;;
31081;SDS011;17737;52.586;13.284;2023-05-10T10:03:11;0.20;;;0.20;;
31081;SDS011;17737;52.586;13.284;2023-05-10T10:05:41;0.20;;;0.20;;
31081;SDS011;17737;52.586;13.284;2023-05-10T10:10:41;0.17;;;0.17;;
31081;SDS011;17737;52.586;13.284;2023-05-10T10:13:11;0.20;;;0.20;;
31081;SDS011;17737;52.586;13.284;2023-05-10T10:15:40;0.20;;;0.20;;
31081;SDS011;17737;52.586;13.284;2023-05-10T10:20:41;0.20;;;0.20;;
31081;SDS011;17737;52.586;13.284;2023-05-10T10:23:09;0.20;;;0.20;;
31081;SDS011;17737;52.586;13.284;2023-05-10T10:25:40;0.20;;;0.20;;
31081;SDS011;17737;52.586;13.284;2023-05-10T10:28:14;0.20;;;0.20;;
31081;SDS011;17737;52.586;13.284;2023-05-10T10:30:54;0.20;;;0.20;;
31081;SDS011;17737;52.586;13.284;2023-05-10T10:33:37;0.20;;;0.20;;
31081;SDS011;17737;52.586;13.284;2023-05-10T10:36:23;0.20;;;0.20;;
31081;SDS011;17737;52.586;13.284;2023-05-10T10:38:59;0.20;;;0.20;;
31081;SDS011;17737;52.586;13.284;2023-05-10T10:41:32;0.15;;;0.15;;
31081;SDS011;17737;52.586;13.284;2023-05-10T10:47:23;0.10;;;0.10;;
31081;SDS011;17737;52.586;13.284;2023-05-10T10:50:02;0.20;;;0.20;;
31081;SDS011;17737;52.586;13.284;2023-05-10T10:52:32;0.15;;;0.15;;
31081;SDS011;17737;52.586;13.284;2023-05-10T10:55:03;0.20;;;0.20;;
31081;SDS011;17737;52.586;13.284;2023-05-10T10:57:43;0.20;;;0.20;;
31081;SDS011;17737;52.586;13.284;2023-05-10T11:00:21;0.15;;;0.15;;
31081;SDS011;17737;52.586;13.284;2023-05-10T11:02:58;0.13;;;0.13;;
31081;SDS011;17737;52.586;13.284;2023-05-10T11:05:34;0.20;;;0.20;;
31081;SDS011;17737;52.586;13.284;2023-05-10T11:08:07;0.20;;;0.20;;
31081;SDS011;17737;52.586;13.284;2023-05-10T11:10:48;0.20;;;0.20;;
31081;SDS011;17737;52.586;13.284;2023-05-10T11:13:30;0.17;;;0.17;;
31081;SDS011;17737;52.586;13.284;2023-05-10T11:16:09;0.10;;;0.10;;
31081;SDS011;17737;52.586;13.284;2023-05-10T11:18:52;0.15;;;0.15;;
31081;SDS011;17737;52.586;13.284;2023-05-10T11:21:44;0.20;;;0.20;;
31081;SDS011;17737;52.586;13.284;2023-05-10T11:24:14;0.20;;;0.20;;
31081;SDS011;17737;52.586;13.284;2023-05-10T11:26:44;0.20;;;0.20;;
31081;SDS011;17737;52.586;13.284;2023-05-10T11:29:15;0.10;;;0.10;;
31081;SDS011;17737;52.586;13.284;2023-05-10T11:31:43;0.10;;;0.10;;
31081;SDS011;17737;52.586;13.284;2023-05-10T11:34:22;0.20;;;0.20;;
31081;SDS011;17737;52.586;13.284;2023-05-10T11:36:52;0.20;;;0.20;;
31081;SDS011;17737;52.586;13.284;2023-05-10T11:39:22;0.10;;;0.10;;
31081;SDS011;17737;52.586;13.284;2023-05-10T11:41:55;0.20;;;0.20;;
31081;SDS011;17737;52.586;13.284;2023-05-10T11:44:25;0.10;;;0.10;;
31081;SDS011;17737;52.586;13.284;2023-05-10T11:46:58;0.10;;;0.10;;
31081;SDS011;17737;52.586;13.284;2023-05-10T11:49:27;0.20;;;0.20;;
31081;SDS011;17737;52.586;13.284;2023-05-10T11:52:03;0.17;;;0.17;;
31081;SDS011;17737;52.586;13.284;2023-05-10T11:54:32;0.20;;;0.20;;
31081;SDS011;17737;52.586;13.284;2023-05-10T11:57:01;0.20;;;0.20;;
31081;SDS011;17737;52.586;13.284;2023-05-10T11:59:30;0.20;;;0.20;;
31081;SDS011;17737;52.586;13.284;2023-05-10T12:01:58;0.20;;;0.20;;
31081;SDS011;17737;52.586;13.284;2023-05-10T12:04:27;0.10;;;0.10;;
31081;SDS011;17737;52.586;13.284;2023-05-10T12:06:55;0.20;;;0.20;;
31081;SDS011;17737;52.586;13.284;2023-05-10T12:09:24;0.13;;;0.13;;
31081;SDS011;17737;52.586;13.284;2023-05-10T12:12:08;0.20;;;0.20;;
31081;SDS011;17737;52.586;13.284;2023-05-10T12:14:37;0.15;;;0.13;;
31081;SDS011;17737;52.586;13.284;2023-05-10T12:17:05;0.20;;;0.20;;
31081;SDS011;17737;52.586;13.284;2023-05-10T12:19:37;0.13;;;0.13;;
31081;SDS011;17737;52.586;13.284;2023-05-10T12:22:05;0.20;;;0.20;;
31081;SDS011;17737;52.586;13.284;2023-05-10T12:24:34;0.20;;;0.20;;
31081;SDS011;17737;52.586;13.284;2023-05-10T12:27:04;0.20;;;0.20;;
31081;SDS011;17737;52.586;13.284;2023-05-10T12:29:34;0.20;;;0.20;;
31081;SDS011;17737;52.586;13.284;2023-05-10T12:32:03;0.20;;;0.20;;
31081;SDS011;17737;52.586;13.284;2023-05-10T12:34:32;0.20;;;0.20;;
31081;SDS011;17737;52.586;13.284;2023-05-10T12:37:02;0.10;;;0.10;;
31081;SDS011;17737;52.586;13.284;2023-05-10T12:39:38;0.10;;;0.10;;
31081;SDS011;17737;52.586;13.284;2023-05-10T12:42:07;0.20;;;0.20;;
31081;SDS011;17737;52.586;13.284;2023-05-10T12:44:36;0.13;;;0.13;;
31081;SDS011;17737;52.586;13.284;2023-05-10T12:47:05;0.20;;;0.20;;
31081;SDS011;17737;52.586;13.284;2023-05-10T12:49:33;0.20;;;0.20;;
31081;SDS011;17737;52.586;13.284;2023-05-10T12:52:01;0.20;;;0.20;;
31081;SDS011;17737;52.586;13.284;2023-05-10T12:54:29;0.13;;;0.13;;
31081;SDS011;17737;52.586;13.284;2023-05-10T12:56:57;0.10;;;0.10;;
31081;SDS011;17737;52.586;13.284;2023-05-10T12:59:26;0.10;;;0.10;;
31081;SDS011;17737;52.586;13.284;2023-05-10T13:01:54;0.10;;;0.10;;
31081;SDS011;17737;52.586;13.284;2023-05-10T13:04:23;0.17;;;0.17;;
31081;SDS011;17737;52.586;13.284;2023-05-10T13:06:51;0.20;;;0.20;;
31081;SDS011;17737;52.586;13.284;2023-05-10T13:09:21;0.20;;;0.20;;
31081;SDS011;17737;52.586;13.284;2023-05-10T13:11:49;0.10;;;0.10;;
31081;SDS011;17737;52.586;13.284;2023-05-10T13:14:19;0.20;;;0.20;;
31081;SDS011;17737;52.586;13.284;2023-05-10T13:16:47;0.10;;;0.10;;
31081;SDS011;17737;52.586;13.284;2023-05-10T13:19:15;0.20;;;0.20;;
31081;SDS011;17737;52.586;13.284;2023-05-10T13:21:45;0.20;;;0.20;;
31081;SDS011;17737;52.586;13.284;2023-05-10T13:24:14;0.10;;;0.10;;
31081;SDS011;17737;52.586;13.284;2023-05-10T13:26:43;0.20;;;0.20;;
31081;SDS011;17737;52.586;13.284;2023-05-10T13:29:11;0.20;;;0.20;;
31081;SDS011;17737;52.586;13.284;2023-05-10T13:31:39;0.10;;;0.10;;
31081;SDS011;17737;52.586;13.284;2023-05-10T13:34:07;0.20;;;0.20;;
31081;SDS011;17737;52.586;13.284;2023-05-10T13:36:35;0.20;;;0.20;;
31081;SDS011;17737;52.586;13.284;2023-05-10T13:39:04;0.10;;;0.10;;
31081;SDS011;17737;52.586;13.284;2023-05-10T13:41:32;0.15;;;0.15;;
31081;SDS011;17737;52.586;13.284;2023-05-10T13:44:00;0.17;;;0.17;;
31081;SDS011;17737;52.586;13.284;2023-05-10T13:46:28;0.13;;;0.13;;
31081;SDS011;17737;52.586;13.284;2023-05-10T13:48:57;0.13;;;0.13;;
31081;SDS011;17737;52.586;13.284;2023-05-10T13:51:25;0.20;;;0.20;;
31081;SDS011;17737;52.586;13.284;2023-05-10T13:53:53;0.20;;;0.20;;
31081;SDS011;17737;52.586;13.284;2023-05-10T13:56:22;0.20;;;0.20;;
31081;SDS011;17737;52.586;13.284;2023-05-10T13:58:50;0.10;;;0.10;;
31081;SDS011;17737;52.586;13.284;2023-05-10T14:01:18;0.10;;;0.10;;
31081;SDS011;17737;52.586;13.284;2023-05-10T14:03:46;0.20;;;0.20;;
31081;SDS011;17737;52.586;13.284;2023-05-10T14:06:14;0.10;;;0.10;;
31081;SDS011;17737;52.586;13.284;2023-05-10T14:08:42;0.20;;;0.20;;
31081;SDS011;17737;52.586;13.284;2023-05-10T14:11:10;0.10;;;0.10;;
31081;SDS011;17737;52.586;13.284;2023-05-10T14:13:40;0.10;;;0.10;;
31081;SDS011;17737;52.586;13.284;2023-05-10T14:16:08;0.10;;;0.10;;
31081;SDS011;17737;52.586;13.284;2023-05-10T14:18:37;0.13;;;0.13;;
31081;SDS011;17737;52.586;13.284;2023-05-10T14:21:05;0.10;;;0.10;;
31081;SDS011;17737;52.586;13.284;2023-05-10T14:23:33;0.10;;;0.10;;
31081;SDS011;17737;52.586;13.284;2023-05-10T14:26:01;0.10;;;0.10;;
31081;SDS011;17737;52.586;13.284;2023-05-10T14:28:29;0.10;;;0.10;;
31081;SDS011;17737;52.586;13.284;2023-05-10T14:30:58;0.10;;;0.10;;
31081;SDS011;17737;52.586;13.284;2023-05-10T14:33:26;0.10;;;0.10;;
31081;SDS011;17737;52.586;13.284;2023-05-10T14:35:54;0.10;;;0.10;;
31081;SDS011;17737;52.586;13.284;2023-05-10T14:38:23;0.10;;;0.10;;
31081;SDS011;17737;52.586;13.284;2023-05-10T14:40:51;0.10;;;0.10;;
31081;SDS011;17737;52.586;13.284;2023-05-10T14:43:19;0.10;;;0.10;;
31081;SDS011;17737;52.586;13.284;2023-05-10T14:45:47;0.10;;;0.10;;
31081;SDS011;17737;52.586;13.284;2023-05-10T14:48:16;0.10;;;0.10;;
31081;SDS011;17737;52.586;13.284;2023-05-10T14:50:45;0.10;;;0.10;;
31081;SDS011;17737;52.586;13.284;2023-05-10T14:53:13;0.10;;;0.10;;
31081;SDS011;17737;52.586;13.284;2023-05-10T14:55:41;0.10;;;0.10;;
31081;SDS011;17737;52.586;13.284;2023-05-10T14:58:09;0.10;;;0.10;;
31081;SDS011;17737;52.586;13.284;2023-05-10T15:00:37;0.10;;;0.10;;
31081;SDS011;17737;52.586;13.284;2023-05-10T15:03:06;0.10;;;0.10;;
31081;SDS011;17737;52.586;13.284;2023-05-10T15:05:35;0.10;;;0.10;;
31081;SDS011;17737;52.586;13.284;2023-05-10T15:08:03;0.10;;;0.10;;
31081;SDS011;17737;52.586;13.284;2023-05-10T15:10:32;0.10;;;0.10;;
31081;SDS011;17737;52.586;13.284;2023-05-10T15:13:00;0.10;;;0.10;;
31081;SDS011;17737;52.586;13.284;2023-05-10T15:15:28;0.20;;;0.20;;
31081;SDS011;17737;52.586;13.284;2023-05-10T15:17:56;0.13;;;0.13;;
31081;SDS011;17737;52.586;13.284;2023-05-10T15:20:24;0.17;;;0.17;;
31081;SDS011;17737;52.586;13.284;2023-05-10T15:22:54;0.10;;;0.10;;
31081;SDS011;17737;52.586;13.284;2023-05-10T15:25:22;0.20;;;0.20;;
31081;SDS011;17737;52.586;13.284;2023-05-10T15:27:50;0.13;;;0.13;;